sensor_id;sensor_type;location;lat;lon;timestamp;P1;durP1;ratioP1;P2;durP2;ratioP2
68680;SDS011;55836;49.858;6.756;2023-03-01T00:00:21;11.13;;;6.80;;
68680;SDS011;55836;49.858;6.756;2023-03-01T00:02:47;10.30;;;6.43;;
68680;SDS011;55836;49.858;6.756;2023-03-01T00:05:13;9.83;;;6.77;;
68680;SDS011;55836;49.858;6.756;2023-03-01T00:07:39;9.13;;;6.37;;
68680;SDS011;55836;49.858;6.756;2023-03-01T00:10:06;10.50;;;7.13;;
68680;SDS011;55836;49.858;6.756;2023-03-01T00:12:32;9.87;;;6.57;;
68680;SDS011;55836;49.858;6.756;2023-03-01T00:14:58;9.17;;;7.27;;
68680;SDS011;55836;49.858;6.756;2023-03-01T00:17:24;9.50;;;7.27;;
68680;SDS011;55836;49.858;6.756;2023-03-01T00:19:50;7.87;;;6.67;;
68680;SDS011;55836;49.858;6.756;2023-03-01T00:22:16;10.80;;;7.30;;
68680;SDS011;55836;49.858;6.756;2023-03-01T00:24:42;10.03;;;7.60;;
68680;SDS011;55836;49.858;6.756;2023-03-01T00:27:08;11.00;;;8.37;;
68680;SDS011;55836;49.858;6.756;2023-03-01T03:13:08;15.10;;;10.07;;
68680;SDS011;55836;49.858;6.756;2023-03-01T03:15:34;16.87;;;10.70;;
68680;SDS011;55836;49.858;6.756;2023-03-01T03:18:01;14.20;;;9.87;;
68680;SDS011;55836;49.858;6.756;2023-03-01T03:20:27;13.30;;;9.93;;
68680;SDS011;55836;49.858;6.756;2023-03-01T03:22:54;16.07;;;10.20;;
68680;SDS011;55836;49.858;6.756;2023-03-01T03:25:20;16.00;;;10.10;;
68680;SDS011;55836;49.858;6.756;2023-03-01T03:27:47;14.07;;;10.10;;
68680;SDS011;55836;49.858;6.756;2023-03-01T03:30:15;15.90;;;10.30;;
68680;SDS011;55836;49.858;6.756;2023-03-01T03:32:42;19.90;;;10.57;;
68680;SDS011;55836;49.858;6.756;2023-03-01T03:35:18;13.23;;;10.50;;
68680;SDS011;55836;49.858;6.756;2023-03-01T03:37:45;17.50;;;10.70;;
68680;SDS011;55836;49.858;6.756;2023-03-01T03:42:56;17.17;;;10.27;;
68680;SDS011;55836;49.858;6.756;2023-03-01T03:45:22;14.50;;;9.93;;
68680;SDS011;55836;49.858;6.756;2023-03-01T03:47:49;17.73;;;10.83;;
68680;SDS011;55836;49.858;6.756;2023-03-01T03:50:15;16.37;;;11.60;;
68680;SDS011;55836;49.858;6.756;2023-03-01T03:52:42;18.50;;;11.07;;
68680;SDS011;55836;49.858;6.756;2023-03-01T03:55:09;17.20;;;11.50;;
68680;SDS011;55836;49.858;6.756;2023-03-01T03:57:35;16.27;;;10.30;;
68680;SDS011;55836;49.858;6.756;2023-03-01T04:00:02;15.67;;;11.00;;
68680;SDS011;55836;49.858;6.756;2023-03-01T04:02:29;21.77;;;12.70;;
68680;SDS011;55836;49.858;6.756;2023-03-01T04:04:55;18.57;;;10.37;;
68680;SDS011;55836;49.858;6.756;2023-03-01T04:07:21;17.80;;;11.43;;
68680;SDS011;55836;49.858;6.756;2023-03-01T04:09:47;16.10;;;10.87;;
68680;SDS011;55836;49.858;6.756;2023-03-01T04:12:13;17.77;;;11.27;;
68680;SDS011;55836;49.858;6.756;2023-03-01T04:14:45;17.30;;;9.77;;
68680;SDS011;55836;49.858;6.756;2023-03-01T04:17:11;17.30;;;11.47;;
68680;SDS011;55836;49.858;6.756;2023-03-01T04:19:37;15.73;;;11.57;;
68680;SDS011;55836;49.858;6.756;2023-03-01T04:22:03;15.90;;;10.97;;
68680;SDS011;55836;49.858;6.756;2023-03-01T04:24:34;16.13;;;11.40;;
68680;SDS011;55836;49.858;6.756;2023-03-01T04:27:00;18.37;;;12.13;;
68680;SDS011;55836;49.858;6.756;2023-03-01T04:29:26;20.67;;;12.10;;
68680;SDS011;55836;49.858;6.756;2023-03-01T04:31:52;18.17;;;11.33;;
68680;SDS011;55836;49.858;6.756;2023-03-01T04:34:19;16.13;;;11.33;;
68680;SDS011;55836;49.858;6.756;2023-03-01T04:36:45;17.67;;;11.40;;
68680;SDS011;55836;49.858;6.756;2023-03-01T04:39:11;16.73;;;11.13;;
68680;SDS011;55836;49.858;6.756;2023-03-01T04:41:37;19.13;;;11.87;;
68680;SDS011;55836;49.858;6.756;2023-03-01T04:44:04;21.40;;;11.47;;
68680;SDS011;55836;49.858;6.756;2023-03-01T04:46:30;21.83;;;12.40;;
68680;SDS011;55836;49.858;6.756;2023-03-01T04:48:56;20.43;;;12.40;;
68680;SDS011;55836;49.858;6.756;2023-03-01T04:51:22;13.77;;;10.90;;
68680;SDS011;55836;49.858;6.756;2023-03-01T04:53:48;21.40;;;12.40;;
68680;SDS011;55836;49.858;6.756;2023-03-01T04:56:14;20.43;;;11.80;;
68680;SDS011;55836;49.858;6.756;2023-03-01T04:58:40;16.37;;;11.77;;
68680;SDS011;55836;49.858;6.756;2023-03-01T05:01:14;19.73;;;12.57;;
68680;SDS011;55836;49.858;6.756;2023-03-01T05:03:42;17.53;;;11.40;;
68680;SDS011;55836;49.858;6.756;2023-03-01T05:06:08;18.73;;;11.63;;
68680;SDS011;55836;49.858;6.756;2023-03-01T05:08:36;17.20;;;12.33;;
68680;SDS011;55836;49.858;6.756;2023-03-01T05:11:02;17.63;;;11.40;;
68680;SDS011;55836;49.858;6.756;2023-03-01T05:13:28;17.30;;;11.87;;
68680;SDS011;55836;49.858;6.756;2023-03-01T05:15:58;18.93;;;11.83;;
68680;SDS011;55836;49.858;6.756;2023-03-01T05:18:25;18.27;;;12.10;;
68680;SDS011;55836;49.858;6.756;2023-03-01T05:20:54;22.53;;;12.30;;
68680;SDS011;55836;49.858;6.756;2023-03-01T05:23:23;21.00;;;12.13;;
68680;SDS011;55836;49.858;6.756;2023-03-01T05:25:49;18.60;;;12.27;;
68680;SDS011;55836;49.858;6.756;2023-03-01T05:28:17;17.80;;;12.17;;
68680;SDS011;55836;49.858;6.756;2023-03-01T05:30:44;18.90;;;12.17;;
68680;SDS011;55836;49.858;6.756;2023-03-01T05:33:10;22.53;;;12.83;;
68680;SDS011;55836;49.858;6.756;2023-03-01T05:35:41;21.87;;;12.70;;
68680;SDS011;55836;49.858;6.756;2023-03-01T05:38:08;19.63;;;12.73;;
68680;SDS011;55836;49.858;6.756;2023-03-01T05:40:38;21.03;;;12.93;;
68680;SDS011;55836;49.858;6.756;2023-03-01T05:43:04;20.07;;;12.47;;
68680;SDS011;55836;49.858;6.756;2023-03-01T05:45:30;19.27;;;12.80;;
68680;SDS011;55836;49.858;6.756;2023-03-01T05:47:57;21.27;;;12.73;;
68680;SDS011;55836;49.858;6.756;2023-03-01T05:50:27;19.67;;;13.87;;
68680;SDS011;55836;49.858;6.756;2023-03-01T05:52:58;20.23;;;12.50;;
68680;SDS011;55836;49.858;6.756;2023-03-01T05:55:24;20.60;;;12.90;;
68680;SDS011;55836;49.858;6.756;2023-03-01T05:57:50;21.40;;;12.80;;
68680;SDS011;55836;49.858;6.756;2023-03-01T06:00:17;18.77;;;12.70;;
68680;SDS011;55836;49.858;6.756;2023-03-01T06:02:43;21.73;;;13.20;;
68680;SDS011;55836;49.858;6.756;2023-03-01T06:05:10;21.53;;;12.83;;
68680;SDS011;55836;49.858;6.756;2023-03-01T06:07:36;21.67;;;12.80;;
68680;SDS011;55836;49.858;6.756;2023-03-01T06:10:06;21.40;;;12.97;;
68680;SDS011;55836;49.858;6.756;2023-03-01T06:12:33;25.43;;;13.47;;
68680;SDS011;55836;49.858;6.756;2023-03-01T06:14:59;21.90;;;14.57;;
68680;SDS011;55836;49.858;6.756;2023-03-01T06:17:26;23.27;;;13.93;;
68680;SDS011;55836;49.858;6.756;2023-03-01T06:19:54;20.93;;;13.17;;
68680;SDS011;55836;49.858;6.756;2023-03-01T06:22:20;20.53;;;12.77;;
68680;SDS011;55836;49.858;6.756;2023-03-01T06:24:46;20.17;;;13.27;;
68680;SDS011;55836;49.858;6.756;2023-03-01T06:27:12;20.87;;;12.77;;
68680;SDS011;55836;49.858;6.756;2023-03-01T06:29:38;20.57;;;12.93;;
68680;SDS011;55836;49.858;6.756;2023-03-01T06:32:04;20.30;;;12.87;;
68680;SDS011;55836;49.858;6.756;2023-03-01T06:34:30;22.77;;;13.73;;
68680;SDS011;55836;49.858;6.756;2023-03-01T06:36:57;21.00;;;12.83;;
68680;SDS011;55836;49.858;6.756;2023-03-01T06:39:23;19.50;;;13.60;;
68680;SDS011;55836;49.858;6.756;2023-03-01T06:41:49;20.33;;;13.47;;
68680;SDS011;55836;49.858;6.756;2023-03-01T06:44:15;28.33;;;14.13;;
68680;SDS011;55836;49.858;6.756;2023-03-01T06:46:41;21.70;;;13.40;;
68680;SDS011;55836;49.858;6.756;2023-03-01T06:49:07;24.47;;;13.03;;
68680;SDS011;55836;49.858;6.756;2023-03-01T06:51:35;22.90;;;13.87;;
68680;SDS011;55836;49.858;6.756;2023-03-01T06:54:01;21.93;;;13.03;;
68680;SDS011;55836;49.858;6.756;2023-03-01T06:56:27;20.93;;;12.73;;
68680;SDS011;55836;49.858;6.756;2023-03-01T06:58:53;21.83;;;13.17;;
68680;SDS011;55836;49.858;6.756;2023-03-01T07:01:19;23.43;;;13.67;;
68680;SDS011;55836;49.858;6.756;2023-03-01T07:03:45;20.87;;;12.83;;
68680;SDS011;55836;49.858;6.756;2023-03-01T07:06:11;23.53;;;13.90;;
68680;SDS011;55836;49.858;6.756;2023-03-01T07:08:37;20.40;;;13.13;;
68680;SDS011;55836;49.858;6.756;2023-03-01T07:11:03;23.63;;;14.30;;
68680;SDS011;55836;49.858;6.756;2023-03-01T07:13:30;20.90;;;13.47;;
68680;SDS011;55836;49.858;6.756;2023-03-01T07:15:56;22.87;;;14.50;;
68680;SDS011;55836;49.858;6.756;2023-03-01T07:18:22;23.23;;;13.53;;
68680;SDS011;55836;49.858;6.756;2023-03-01T07:20:48;22.90;;;14.13;;
68680;SDS011;55836;49.858;6.756;2023-03-01T07:23:14;21.73;;;13.63;;
68680;SDS011;55836;49.858;6.756;2023-03-01T07:25:40;20.47;;;13.47;;
68680;SDS011;55836;49.858;6.756;2023-03-01T07:28:07;21.93;;;13.70;;
68680;SDS011;55836;49.858;6.756;2023-03-01T07:30:33;21.93;;;13.07;;
68680;SDS011;55836;49.858;6.756;2023-03-01T07:32:59;21.37;;;14.37;;
68680;SDS011;55836;49.858;6.756;2023-03-01T07:35:25;23.87;;;13.70;;
68680;SDS011;55836;49.858;6.756;2023-03-01T07:37:52;25.30;;;14.53;;
68680;SDS011;55836;49.858;6.756;2023-03-01T07:40:18;25.20;;;14.13;;
68680;SDS011;55836;49.858;6.756;2023-03-01T07:42:44;21.87;;;14.27;;
68680;SDS011;55836;49.858;6.756;2023-03-01T07:45:10;22.13;;;13.37;;
68680;SDS011;55836;49.858;6.756;2023-03-01T07:47:38;24.83;;;15.33;;
68680;SDS011;55836;49.858;6.756;2023-03-01T07:50:04;22.37;;;14.67;;
68680;SDS011;55836;49.858;6.756;2023-03-01T07:52:30;25.30;;;14.20;;
68680;SDS011;55836;49.858;6.756;2023-03-01T07:54:56;21.83;;;14.30;;
68680;SDS011;55836;49.858;6.756;2023-03-01T07:57:23;23.67;;;14.00;;
68680;SDS011;55836;49.858;6.756;2023-03-01T07:59:49;23.13;;;14.53;;
68680;SDS011;55836;49.858;6.756;2023-03-01T08:02:15;24.33;;;14.90;;
68680;SDS011;55836;49.858;6.756;2023-03-01T08:04:42;28.70;;;15.93;;
68680;SDS011;55836;49.858;6.756;2023-03-01T08:07:08;25.17;;;14.90;;
68680;SDS011;55836;49.858;6.756;2023-03-01T08:09:34;25.83;;;13.87;;
68680;SDS011;55836;49.858;6.756;2023-03-01T08:12:02;24.40;;;15.33;;
68680;SDS011;55836;49.858;6.756;2023-03-01T08:14:29;25.70;;;14.40;;
68680;SDS011;55836;49.858;6.756;2023-03-01T08:16:55;25.47;;;14.23;;
68680;SDS011;55836;49.858;6.756;2023-03-01T08:19:21;21.03;;;13.97;;
68680;SDS011;55836;49.858;6.756;2023-03-01T08:21:47;22.13;;;13.47;;
68680;SDS011;55836;49.858;6.756;2023-03-01T08:24:13;26.27;;;16.00;;
68680;SDS011;55836;49.858;6.756;2023-03-01T08:26:39;24.63;;;14.77;;
68680;SDS011;55836;49.858;6.756;2023-03-01T08:29:05;24.73;;;14.50;;
68680;SDS011;55836;49.858;6.756;2023-03-01T08:31:36;24.60;;;14.53;;
68680;SDS011;55836;49.858;6.756;2023-03-01T08:34:05;25.07;;;14.03;;
68680;SDS011;55836;49.858;6.756;2023-03-01T08:36:32;24.57;;;14.13;;
68680;SDS011;55836;49.858;6.756;2023-03-01T08:38:59;26.10;;;14.87;;
68680;SDS011;55836;49.858;6.756;2023-03-01T08:41:25;23.73;;;14.47;;
68680;SDS011;55836;49.858;6.756;2023-03-01T08:43:51;22.30;;;14.23;;
68680;SDS011;55836;49.858;6.756;2023-03-01T08:46:23;26.33;;;15.13;;
68680;SDS011;55836;49.858;6.756;2023-03-01T08:48:49;25.60;;;15.30;;
68680;SDS011;55836;49.858;6.756;2023-03-01T08:51:16;24.83;;;15.17;;
68680;SDS011;55836;49.858;6.756;2023-03-01T08:53:42;21.70;;;13.37;;
68680;SDS011;55836;49.858;6.756;2023-03-01T08:56:09;22.87;;;14.60;;
68680;SDS011;55836;49.858;6.756;2023-03-01T08:58:35;26.30;;;15.77;;
68680;SDS011;55836;49.858;6.756;2023-03-01T09:01:06;25.23;;;14.83;;
68680;SDS011;55836;49.858;6.756;2023-03-01T09:03:32;25.70;;;15.33;;
68680;SDS011;55836;49.858;6.756;2023-03-01T09:06:01;21.73;;;14.13;;
68680;SDS011;55836;49.858;6.756;2023-03-01T09:08:27;21.03;;;13.20;;
68680;SDS011;55836;49.858;6.756;2023-03-01T09:10:53;26.27;;;14.53;;
68680;SDS011;55836;49.858;6.756;2023-03-01T09:13:19;23.17;;;13.50;;
68680;SDS011;55836;49.858;6.756;2023-03-01T09:15:45;23.37;;;14.23;;
68680;SDS011;55836;49.858;6.756;2023-03-01T09:18:11;23.60;;;13.43;;
68680;SDS011;55836;49.858;6.756;2023-03-01T09:20:37;22.10;;;13.50;;
68680;SDS011;55836;49.858;6.756;2023-03-01T09:23:03;21.50;;;14.47;;
68680;SDS011;55836;49.858;6.756;2023-03-01T09:25:29;23.70;;;14.77;;
68680;SDS011;55836;49.858;6.756;2023-03-01T09:27:55;22.93;;;13.90;;
68680;SDS011;55836;49.858;6.756;2023-03-01T09:30:21;26.43;;;13.67;;
68680;SDS011;55836;49.858;6.756;2023-03-01T09:32:49;21.37;;;14.27;;
68680;SDS011;55836;49.858;6.756;2023-03-01T09:35:15;24.97;;;14.20;;
68680;SDS011;55836;49.858;6.756;2023-03-01T09:37:41;20.90;;;13.37;;
68680;SDS011;55836;49.858;6.756;2023-03-01T09:40:14;22.60;;;13.60;;
68680;SDS011;55836;49.858;6.756;2023-03-01T09:42:45;23.57;;;14.97;;
68680;SDS011;55836;49.858;6.756;2023-03-01T09:45:15;23.33;;;13.90;;
68680;SDS011;55836;49.858;6.756;2023-03-01T09:47:45;21.63;;;13.40;;
68680;SDS011;55836;49.858;6.756;2023-03-01T09:50:17;20.93;;;13.77;;
68680;SDS011;55836;49.858;6.756;2023-03-01T09:55:11;22.80;;;15.17;;
68680;SDS011;55836;49.858;6.756;2023-03-01T09:57:54;20.33;;;12.63;;
68680;SDS011;55836;49.858;6.756;2023-03-01T10:10:40;23.07;;;14.07;;
68680;SDS011;55836;49.858;6.756;2023-03-01T10:13:18;20.83;;;12.80;;
68680;SDS011;55836;49.858;6.756;2023-03-01T10:15:48;21.23;;;13.57;;
68680;SDS011;55836;49.858;6.756;2023-03-01T10:18:20;22.33;;;13.57;;
68680;SDS011;55836;49.858;6.756;2023-03-01T10:20:52;21.20;;;14.27;;
68680;SDS011;55836;49.858;6.756;2023-03-01T10:23:19;20.37;;;13.47;;
68680;SDS011;55836;49.858;6.756;2023-03-01T10:28:54;20.97;;;13.70;;
68680;SDS011;55836;49.858;6.756;2023-03-01T10:31:18;17.97;;;13.17;;
68680;SDS011;55836;49.858;6.756;2023-03-01T10:33:45;23.73;;;15.03;;
68680;SDS011;55836;49.858;6.756;2023-03-01T10:36:12;25.07;;;14.80;;
68680;SDS011;55836;49.858;6.756;2023-03-01T10:38:52;20.83;;;13.50;;
68680;SDS011;55836;49.858;6.756;2023-03-01T10:41:19;24.87;;;13.53;;
68680;SDS011;55836;49.858;6.756;2023-03-01T10:43:49;23.07;;;14.60;;
68680;SDS011;55836;49.858;6.756;2023-03-01T10:51:33;22.67;;;15.00;;
68680;SDS011;55836;49.858;6.756;2023-03-01T10:53:59;24.17;;;14.00;;
68680;SDS011;55836;49.858;6.756;2023-03-01T10:56:26;23.33;;;14.10;;
68680;SDS011;55836;49.858;6.756;2023-03-01T11:01:25;23.10;;;14.47;;
68680;SDS011;55836;49.858;6.756;2023-03-01T11:06:33;23.23;;;14.80;;
68680;SDS011;55836;49.858;6.756;2023-03-01T11:09:19;23.77;;;14.43;;
68680;SDS011;55836;49.858;6.756;2023-03-01T11:11:46;24.50;;;15.00;;
68680;SDS011;55836;49.858;6.756;2023-03-01T11:14:26;23.43;;;14.40;;
68680;SDS011;55836;49.858;6.756;2023-03-01T11:17:03;24.80;;;15.43;;
68680;SDS011;55836;49.858;6.756;2023-03-01T11:19:29;25.50;;;14.60;;
68680;SDS011;55836;49.858;6.756;2023-03-01T11:22:29;21.23;;;15.37;;
68680;SDS011;55836;49.858;6.756;2023-03-01T11:24:51;23.37;;;14.90;;
68680;SDS011;55836;49.858;6.756;2023-03-01T11:27:23;22.33;;;14.90;;
68680;SDS011;55836;49.858;6.756;2023-03-01T11:32:23;26.27;;;15.43;;
68680;SDS011;55836;49.858;6.756;2023-03-01T11:34:52;22.90;;;14.83;;
68680;SDS011;55836;49.858;6.756;2023-03-01T11:43:23;23.97;;;14.73;;
68680;SDS011;55836;49.858;6.756;2023-03-01T11:51:09;22.50;;;14.47;;
68680;SDS011;55836;49.858;6.756;2023-03-01T12:06:59;22.17;;;15.70;;
68680;SDS011;55836;49.858;6.756;2023-03-01T12:11:59;20.50;;;13.80;;
68680;SDS011;55836;49.858;6.756;2023-03-01T12:14:50;20.47;;;14.03;;
68680;SDS011;55836;49.858;6.756;2023-03-01T12:40:28;21.47;;;14.73;;
68680;SDS011;55836;49.858;6.756;2023-03-01T12:43:58;25.40;;;16.87;;
68680;SDS011;55836;49.858;6.756;2023-03-01T12:48:42;22.47;;;15.33;;
68680;SDS011;55836;49.858;6.756;2023-03-01T12:51:14;22.83;;;14.60;;
68680;SDS011;55836;49.858;6.756;2023-03-01T12:53:41;22.83;;;14.13;;
68680;SDS011;55836;49.858;6.756;2023-03-01T12:56:10;23.73;;;15.87;;
68680;SDS011;55836;49.858;6.756;2023-03-01T12:58:42;22.00;;;15.13;;
68680;SDS011;55836;49.858;6.756;2023-03-01T13:09:17;22.87;;;14.13;;
68680;SDS011;55836;49.858;6.756;2023-03-01T13:11:46;22.30;;;14.40;;
68680;SDS011;55836;49.858;6.756;2023-03-01T13:16:47;21.73;;;16.00;;
68680;SDS011;55836;49.858;6.756;2023-03-01T13:21:40;21.67;;;13.47;;
68680;SDS011;55836;49.858;6.756;2023-03-01T13:29:44;21.07;;;14.27;;
68680;SDS011;55836;49.858;6.756;2023-03-01T13:32:30;21.10;;;14.13;;
68680;SDS011;55836;49.858;6.756;2023-03-01T13:35:08;21.13;;;13.47;;
68680;SDS011;55836;49.858;6.756;2023-03-01T13:37:49;23.87;;;14.00;;
68680;SDS011;55836;49.858;6.756;2023-03-01T13:42:45;19.17;;;13.90;;
68680;SDS011;55836;49.858;6.756;2023-03-01T13:47:44;20.70;;;14.07;;
68680;SDS011;55836;49.858;6.756;2023-03-01T13:50:16;20.97;;;14.27;;
68680;SDS011;55836;49.858;6.756;2023-03-01T13:52:45;22.97;;;14.50;;
68680;SDS011;55836;49.858;6.756;2023-03-01T13:57:48;20.33;;;13.90;;
68680;SDS011;55836;49.858;6.756;2023-03-01T14:00:29;20.60;;;13.67;;
68680;SDS011;55836;49.858;6.756;2023-03-01T14:03:02;20.07;;;13.67;;
68680;SDS011;55836;49.858;6.756;2023-03-01T14:05:29;17.83;;;13.33;;
68680;SDS011;55836;49.858;6.756;2023-03-01T14:07:55;20.27;;;13.83;;
68680;SDS011;55836;49.858;6.756;2023-03-01T14:10:21;21.13;;;13.67;;
68680;SDS011;55836;49.858;6.756;2023-03-01T14:12:52;20.43;;;14.20;;
68680;SDS011;55836;49.858;6.756;2023-03-01T14:15:36;20.17;;;13.50;;
68680;SDS011;55836;49.858;6.756;2023-03-01T14:20:30;17.33;;;13.23;;
68680;SDS011;55836;49.858;6.756;2023-03-01T14:23:01;21.27;;;13.70;;
68680;SDS011;55836;49.858;6.756;2023-03-01T14:25:29;19.47;;;13.93;;
68680;SDS011;55836;49.858;6.756;2023-03-01T14:28:15;21.30;;;15.10;;
68680;SDS011;55836;49.858;6.756;2023-03-01T14:30:49;21.87;;;13.73;;
68680;SDS011;55836;49.858;6.756;2023-03-01T14:33:34;18.67;;;13.23;;
68680;SDS011;55836;49.858;6.756;2023-03-01T14:36:07;19.67;;;13.17;;
68680;SDS011;55836;49.858;6.756;2023-03-01T14:38:35;22.40;;;13.00;;
68680;SDS011;55836;49.858;6.756;2023-03-01T14:41:08;22.90;;;13.40;;
68680;SDS011;55836;49.858;6.756;2023-03-01T14:43:35;19.63;;;12.70;;
68680;SDS011;55836;49.858;6.756;2023-03-01T14:46:02;19.20;;;12.70;;
68680;SDS011;55836;49.858;6.756;2023-03-01T14:48:28;18.73;;;13.10;;
68680;SDS011;55836;49.858;6.756;2023-03-01T14:50:55;23.50;;;13.53;;
68680;SDS011;55836;49.858;6.756;2023-03-01T14:53:25;20.57;;;12.47;;
68680;SDS011;55836;49.858;6.756;2023-03-01T14:55:54;17.17;;;13.10;;
68680;SDS011;55836;49.858;6.756;2023-03-01T14:58:21;17.60;;;12.20;;
68680;SDS011;55836;49.858;6.756;2023-03-01T15:00:50;19.53;;;12.57;;
68680;SDS011;55836;49.858;6.756;2023-03-01T15:03:26;21.17;;;13.60;;
68680;SDS011;55836;49.858;6.756;2023-03-01T15:05:53;22.73;;;13.13;;
68680;SDS011;55836;49.858;6.756;2023-03-01T15:08:20;19.57;;;13.03;;
68680;SDS011;55836;49.858;6.756;2023-03-01T15:13:25;22.47;;;14.40;;
68680;SDS011;55836;49.858;6.756;2023-03-01T15:15:53;18.63;;;12.13;;
68680;SDS011;55836;49.858;6.756;2023-03-01T15:18:20;16.93;;;10.97;;
68680;SDS011;55836;49.858;6.756;2023-03-01T15:20:48;16.17;;;11.77;;
68680;SDS011;55836;49.858;6.756;2023-03-01T15:23:28;14.53;;;10.97;;
68680;SDS011;55836;49.858;6.756;2023-03-01T15:25:55;17.97;;;11.67;;
68680;SDS011;55836;49.858;6.756;2023-03-01T15:28:23;18.67;;;12.03;;
68680;SDS011;55836;49.858;6.756;2023-03-01T15:30:54;15.00;;;10.37;;
68680;SDS011;55836;49.858;6.756;2023-03-01T15:35:52;13.70;;;9.73;;
68680;SDS011;55836;49.858;6.756;2023-03-01T15:38:36;12.33;;;9.73;;
68680;SDS011;55836;49.858;6.756;2023-03-01T15:41:22;14.80;;;9.43;;
68680;SDS011;55836;49.858;6.756;2023-03-01T15:43:49;16.30;;;10.17;;
68680;SDS011;55836;49.858;6.756;2023-03-01T15:46:16;13.97;;;10.47;;
68680;SDS011;55836;49.858;6.756;2023-03-01T15:48:46;15.53;;;9.57;;
68680;SDS011;55836;49.858;6.756;2023-03-01T15:51:14;12.73;;;9.17;;
68680;SDS011;55836;49.858;6.756;2023-03-01T15:53:41;12.70;;;8.40;;
68680;SDS011;55836;49.858;6.756;2023-03-01T15:56:07;12.57;;;8.73;;
68680;SDS011;55836;49.858;6.756;2023-03-01T15:58:33;13.70;;;8.50;;
68680;SDS011;55836;49.858;6.756;2023-03-01T16:00:59;12.47;;;9.37;;
68680;SDS011;55836;49.858;6.756;2023-03-01T16:03:25;13.60;;;8.47;;
68680;SDS011;55836;49.858;6.756;2023-03-01T16:05:51;12.13;;;7.93;;
68680;SDS011;55836;49.858;6.756;2023-03-01T16:08:18;13.77;;;9.27;;
68680;SDS011;55836;49.858;6.756;2023-03-01T16:10:44;13.20;;;8.37;;
68680;SDS011;55836;49.858;6.756;2023-03-01T16:13:13;12.40;;;7.60;;
68680;SDS011;55836;49.858;6.756;2023-03-01T16:15:39;10.30;;;7.60;;
68680;SDS011;55836;49.858;6.756;2023-03-01T16:18:06;14.37;;;8.43;;
68680;SDS011;55836;49.858;6.756;2023-03-01T16:20:35;14.17;;;8.43;;
68680;SDS011;55836;49.858;6.756;2023-03-01T16:23:02;13.37;;;8.43;;
68680;SDS011;55836;49.858;6.756;2023-03-01T16:25:29;13.07;;;9.00;;
68680;SDS011;55836;49.858;6.756;2023-03-01T16:27:55;11.73;;;8.00;;
68680;SDS011;55836;49.858;6.756;2023-03-01T16:30:23;12.63;;;9.23;;
68680;SDS011;55836;49.858;6.756;2023-03-01T16:32:50;10.60;;;7.87;;
68680;SDS011;55836;49.858;6.756;2023-03-01T16:35:17;21.87;;;8.33;;
68680;SDS011;55836;49.858;6.756;2023-03-01T16:37:43;13.63;;;8.33;;
68680;SDS011;55836;49.858;6.756;2023-03-01T16:40:16;11.00;;;7.60;;
68680;SDS011;55836;49.858;6.756;2023-03-01T16:42:43;14.13;;;10.37;;
68680;SDS011;55836;49.858;6.756;2023-03-01T16:45:09;12.70;;;8.20;;
68680;SDS011;55836;49.858;6.756;2023-03-01T16:47:36;12.13;;;7.93;;
68680;SDS011;55836;49.858;6.756;2023-03-01T16:50:02;10.83;;;7.47;;
68680;SDS011;55836;49.858;6.756;2023-03-01T16:52:28;10.87;;;7.67;;
68680;SDS011;55836;49.858;6.756;2023-03-01T16:54:54;11.37;;;7.13;;
68680;SDS011;55836;49.858;6.756;2023-03-01T16:57:20;11.27;;;7.97;;
68680;SDS011;55836;49.858;6.756;2023-03-01T16:59:46;20.47;;;9.20;;
68680;SDS011;55836;49.858;6.756;2023-03-01T17:02:12;9.97;;;6.77;;
68680;SDS011;55836;49.858;6.756;2023-03-01T17:04:39;12.67;;;7.90;;
68680;SDS011;55836;49.858;6.756;2023-03-01T17:07:06;11.80;;;8.20;;
68680;SDS011;55836;49.858;6.756;2023-03-01T17:09:38;14.07;;;8.43;;
68680;SDS011;55836;49.858;6.756;2023-03-01T17:12:04;12.33;;;8.10;;
68680;SDS011;55836;49.858;6.756;2023-03-01T17:14:30;9.73;;;7.10;;
68680;SDS011;55836;49.858;6.756;2023-03-01T17:16:56;16.10;;;8.50;;
68680;SDS011;55836;49.858;6.756;2023-03-01T17:19:22;11.47;;;8.30;;
68680;SDS011;55836;49.858;6.756;2023-03-01T17:21:48;15.80;;;10.80;;
68680;SDS011;55836;49.858;6.756;2023-03-01T17:24:14;15.70;;;8.80;;
68680;SDS011;55836;49.858;6.756;2023-03-01T17:26:40;13.50;;;8.83;;
68680;SDS011;55836;49.858;6.756;2023-03-01T17:29:06;20.03;;;9.37;;
68680;SDS011;55836;49.858;6.756;2023-03-01T17:31:32;11.10;;;7.40;;
68680;SDS011;55836;49.858;6.756;2023-03-01T17:33:58;11.63;;;8.20;;
68680;SDS011;55836;49.858;6.756;2023-03-01T17:36:25;11.17;;;8.33;;
68680;SDS011;55836;49.858;6.756;2023-03-01T17:38:51;9.83;;;7.37;;
68680;SDS011;55836;49.858;6.756;2023-03-01T17:41:17;16.77;;;10.30;;
68680;SDS011;55836;49.858;6.756;2023-03-01T17:43:44;14.30;;;10.20;;
68680;SDS011;55836;49.858;6.756;2023-03-01T17:46:10;16.23;;;11.17;;
68680;SDS011;55836;49.858;6.756;2023-03-01T17:48:37;20.27;;;13.60;;
68680;SDS011;55836;49.858;6.756;2023-03-01T17:51:07;20.33;;;12.50;;
68680;SDS011;55836;49.858;6.756;2023-03-01T17:53:33;16.67;;;10.93;;
68680;SDS011;55836;49.858;6.756;2023-03-01T17:56:01;14.47;;;8.60;;
68680;SDS011;55836;49.858;6.756;2023-03-01T17:58:27;12.90;;;8.27;;
68680;SDS011;55836;49.858;6.756;2023-03-01T18:00:53;10.23;;;6.93;;
68680;SDS011;55836;49.858;6.756;2023-03-01T18:03:19;11.80;;;7.33;;
68680;SDS011;55836;49.858;6.756;2023-03-01T18:05:46;12.67;;;7.20;;
68680;SDS011;55836;49.858;6.756;2023-03-01T18:08:12;10.70;;;6.70;;
68680;SDS011;55836;49.858;6.756;2023-03-01T18:10:38;8.53;;;6.53;;
68680;SDS011;55836;49.858;6.756;2023-03-01T18:13:05;12.13;;;7.73;;
68680;SDS011;55836;49.858;6.756;2023-03-01T18:15:31;9.33;;;6.33;;
68680;SDS011;55836;49.858;6.756;2023-03-01T18:17:58;11.80;;;7.10;;
68680;SDS011;55836;49.858;6.756;2023-03-01T18:20:24;9.07;;;6.90;;
68680;SDS011;55836;49.858;6.756;2023-03-01T18:22:51;11.40;;;7.47;;
68680;SDS011;55836;49.858;6.756;2023-03-01T18:25:17;12.70;;;6.93;;
68680;SDS011;55836;49.858;6.756;2023-03-01T18:27:43;10.90;;;7.30;;
68680;SDS011;55836;49.858;6.756;2023-03-01T18:30:10;8.73;;;6.20;;
68680;SDS011;55836;49.858;6.756;2023-03-01T18:32:36;11.43;;;6.73;;
68680;SDS011;55836;49.858;6.756;2023-03-01T18:35:03;9.00;;;6.10;;
68680;SDS011;55836;49.858;6.756;2023-03-01T18:37:29;8.80;;;6.40;;
68680;SDS011;55836;49.858;6.756;2023-03-01T18:39:55;10.93;;;6.37;;
68680;SDS011;55836;49.858;6.756;2023-03-01T18:42:21;11.13;;;6.23;;
68680;SDS011;55836;49.858;6.756;2023-03-01T18:44:48;9.30;;;6.40;;
68680;SDS011;55836;49.858;6.756;2023-03-01T18:47:14;10.73;;;6.83;;
68680;SDS011;55836;49.858;6.756;2023-03-01T18:49:40;11.83;;;6.60;;
68680;SDS011;55836;49.858;6.756;2023-03-01T18:52:06;8.77;;;6.50;;
68680;SDS011;55836;49.858;6.756;2023-03-01T18:54:32;8.30;;;6.37;;
68680;SDS011;55836;49.858;6.756;2023-03-01T18:56:59;13.63;;;7.50;;
68680;SDS011;55836;49.858;6.756;2023-03-01T18:59:25;13.23;;;7.70;;
68680;SDS011;55836;49.858;6.756;2023-03-01T19:01:53;12.60;;;7.70;;
68680;SDS011;55836;49.858;6.756;2023-03-01T19:04:19;9.07;;;6.37;;
68680;SDS011;55836;49.858;6.756;2023-03-01T19:06:45;8.97;;;6.47;;
68680;SDS011;55836;49.858;6.756;2023-03-01T19:09:11;14.23;;;8.90;;
68680;SDS011;55836;49.858;6.756;2023-03-01T19:11:39;9.77;;;6.60;;